Terminal Aerodrome Forecast
Issued by NWS Louisville, KY

Home | Current Version | Previous Version | Text Only | Print | Product List | Glossary On
Versions: 1 2 3 4 5 6 7 8 9 10 11 12 13 14 15 16 17 18 19 20 21
000
FTUS43 KLMK 010800 AAA
TAFSDF
TAF AMD
KSDF 010809Z 0108/0212 18006KT P6SM SCT010 BKN040
      TEMPO 0108/0110 BKN010
     FM011000 19007KT P6SM BKN012
     FM011400 22014G19KT P6SM SCT015 BKN040
     FM020000 20010KT P6SM SCT040 BKN120=

USA.gov is the U.S. government's official web portal to all federal, state and local government web resources and services.